createdAt,value
2023-09-02T00:01:16.484Z,100930.34
2023-09-02T00:03:43.629Z,100929.86
2023-09-02T00:06:10.889Z,100930.98
2023-09-02T00:08:37.887Z,100927.17
2023-09-02T00:11:04.943Z,100931.88
2023-09-02T00:13:31.928Z,100932.70
2023-09-02T00:15:58.894Z,100933.06
2023-09-02T00:18:25.917Z,100936.50
2023-09-02T00:20:53.309Z,100933.35
2023-09-02T00:23:20.421Z,100933.59
2023-09-02T00:25:47.419Z,100933.63
2023-09-02T00:28:14.450Z,100932.76
2023-09-02T00:30:41.442Z,100933.79
2023-09-02T00:33:08.590Z,100933.08
2023-09-02T00:35:35.606Z,100932.38
2023-09-02T00:38:02.912Z,100931.52
2023-09-02T00:40:30.714Z,100939.10
2023-09-02T00:42:59.747Z,100935.18
2023-09-02T00:45:26.843Z,100939.06
2023-09-02T00:47:54.743Z,100939.85
2023-09-02T00:50:22.097Z,100937.83
2023-09-02T00:52:49.142Z,100941.35
2023-09-02T00:55:16.266Z,100938.50
2023-09-02T00:57:45.448Z,100940.56
2023-09-02T01:00:14.159Z,100938.73
2023-09-02T01:02:41.483Z,100939.30
2023-09-02T01:05:09.954Z,100939.57
2023-09-02T01:07:37.531Z,100939.66
2023-09-02T01:10:06.271Z,100935.80
2023-09-02T01:12:33.414Z,100933.34
2023-09-02T01:15:00.474Z,100938.34
2023-09-02T01:17:28.264Z,100937.36
2023-09-02T01:19:57.623Z,100936.42
2023-09-02T01:22:55.188Z,100935.73
2023-09-02T01:26:15.684Z,100940.11
2023-09-02T01:28:46.123Z,100937.27
2023-09-02T01:31:17.447Z,100942.37
2023-09-02T01:33:47.821Z,100944.34
2023-09-02T01:36:17.908Z,100940.10
2023-09-02T01:38:45.934Z,100942.20
2023-09-02T01:41:14.977Z,100947.27
2023-09-02T01:43:44.868Z,100947.98
2023-09-02T01:46:12.562Z,100950.66
2023-09-02T01:48:40.060Z,100945.41
2023-09-02T01:51:08.709Z,100941.70
2023-09-02T01:53:36.297Z,100941.85
2023-09-02T01:56:03.833Z,100944.52
2023-09-02T01:58:31.262Z,100943.05
2023-09-02T02:00:59.302Z,100942.15
2023-09-02T02:03:31.542Z,100938.68
2023-09-02T02:06:01.171Z,100939.81
2023-09-02T02:08:39.340Z,100937.25
2023-09-02T02:11:07.367Z,100934.77
2023-09-02T02:13:34.396Z,100935.67
2023-09-02T02:16:01.528Z,100935.42
2023-09-02T02:27:19.807Z,100936.79
2023-09-02T02:29:48.317Z,100937.14
2023-09-02T02:32:16.743Z,100939.52
2023-09-02T02:34:45.748Z,100935.87
2023-09-02T02:37:14.397Z,100939.13
2023-09-02T02:39:43.287Z,100941.92
2023-09-02T02:42:11.643Z,100940.55
2023-09-02T02:44:40.053Z,100941.16
2023-09-02T02:47:08.475Z,100941.62
2023-09-02T02:49:36.988Z,100935.89
2023-09-02T02:52:05.665Z,100934.37
2023-09-02T02:54:38.097Z,100935.35
2023-09-02T02:57:06.664Z,100930.00
2023-09-02T02:59:35.125Z,100933.66
2023-09-02T03:02:04.033Z,100935.59
2023-09-02T03:04:33.553Z,100933.66
2023-09-02T03:07:02.154Z,100934.88
2023-09-02T03:09:30.535Z,100941.20
2023-09-02T03:11:59.152Z,100946.13
2023-09-02T03:14:28.452Z,100947.73
2023-09-02T03:16:56.942Z,100948.73
2023-09-02T03:19:25.374Z,100943.87
2023-09-02T03:21:53.848Z,100940.53
2023-09-02T03:24:22.590Z,100945.88
2023-09-02T03:26:51.284Z,100941.90
2023-09-02T03:29:19.645Z,100939.86
2023-09-02T03:31:48.515Z,100940.98
2023-09-02T03:34:16.974Z,100938.93
2023-09-02T03:36:45.357Z,100929.63
2023-09-02T03:39:13.755Z,100930.73
2023-09-02T03:41:42.197Z,100929.59
2023-09-02T03:44:10.618Z,100925.67
2023-09-02T03:46:39.067Z,100929.29
2023-09-02T03:49:07.507Z,100929.59
2023-09-02T03:51:35.915Z,100930.80
2023-09-02T03:54:05.542Z,100937.00
2023-09-02T03:56:37.999Z,100939.27
2023-09-02T03:59:07.959Z,100942.04
2023-09-02T04:01:36.824Z,100945.36
2023-09-02T04:04:05.500Z,100948.42
2023-09-02T04:06:34.823Z,100947.66
2023-09-02T04:09:03.236Z,100953.88
2023-09-02T04:11:31.716Z,100955.92
2023-09-02T04:24:58.311Z,100969.98
2023-09-02T04:27:27.517Z,100970.67
2023-09-02T04:29:56.236Z,100970.89
2023-09-02T04:32:24.927Z,100964.55
2023-09-02T04:34:53.507Z,100967.41
2023-09-02T04:37:21.979Z,100965.44
2023-09-02T04:39:50.587Z,100966.61
2023-09-02T04:42:19.105Z,100971.58
2023-09-02T04:44:52.053Z,100963.92
2023-09-02T04:47:20.540Z,100962.38
2023-09-02T04:49:50.033Z,100962.89
2023-09-02T04:52:19.754Z,100962.44
2023-09-02T04:54:48.213Z,100961.19
2023-09-02T04:57:18.761Z,100965.41
2023-09-02T04:59:48.912Z,100968.81
2023-09-02T05:02:17.385Z,100972.30
2023-09-02T05:04:45.889Z,100968.32
2023-09-02T05:07:15.150Z,100970.95
2023-09-02T05:09:44.355Z,100970.81
2023-09-02T05:12:13.368Z,100973.23
2023-09-02T05:14:41.922Z,100973.73
2023-09-02T05:17:11.705Z,100969.85
2023-09-02T05:19:40.214Z,100967.55
2023-09-02T05:22:09.596Z,100966.11
2023-09-02T05:24:38.080Z,100965.13
2023-09-02T05:27:07.583Z,100963.91
2023-09-02T05:29:36.070Z,100963.25
2023-09-02T05:32:04.787Z,100959.42
2023-09-02T05:34:35.363Z,100959.47
2023-09-02T05:37:04.851Z,100957.60
2023-09-02T05:39:33.427Z,100961.35
2023-09-02T05:42:01.965Z,100964.54
2023-09-02T05:44:30.500Z,100963.62
2023-09-02T05:46:58.881Z,100963.27
2023-09-02T05:49:27.310Z,100971.31
2023-09-02T05:51:56.046Z,100972.22
2023-09-02T05:54:24.611Z,100975.95
2023-09-02T05:56:52.932Z,100976.44
2023-09-02T05:59:21.303Z,100979.91
2023-09-02T06:01:49.742Z,100976.88
2023-09-02T06:04:18.176Z,100973.05
2023-09-02T06:06:46.518Z,100974.66
2023-09-02T06:09:14.958Z,100977.97
2023-09-02T06:11:43.340Z,100975.12
2023-09-02T06:14:11.728Z,100975.80
2023-09-02T06:16:40.198Z,100974.97
2023-09-02T06:19:08.627Z,100975.42
2023-09-02T06:21:37.034Z,100974.30
2023-09-02T06:24:07.186Z,100980.14
2023-09-02T06:26:36.345Z,100980.38
2023-09-02T06:29:04.779Z,100978.13
2023-09-02T06:31:33.174Z,100977.54
2023-09-02T06:34:01.606Z,100974.29
2023-09-02T06:36:30.021Z,100979.42
2023-09-02T06:38:58.406Z,100982.85
2023-09-02T06:41:26.741Z,100977.32
2023-09-02T06:43:55.170Z,100982.77
2023-09-02T06:46:26.810Z,100979.67
2023-09-02T06:48:55.245Z,100974.45
2023-09-02T07:01:07.476Z,100977.03
2023-09-02T07:03:35.906Z,100978.82
2023-09-02T07:06:09.929Z,100978.51
2023-09-02T07:08:38.368Z,100983.12
2023-09-02T07:11:07.156Z,100979.62
2023-09-02T07:13:35.496Z,100982.13
2023-09-02T07:16:05.329Z,100981.22
2023-09-02T07:18:35.218Z,100986.60
2023-09-02T07:21:06.647Z,100987.52
2023-09-02T07:23:35.213Z,100987.29
2023-09-02T07:26:07.332Z,100980.98
2023-09-02T07:28:38.171Z,100985.45
2023-09-02T07:31:06.907Z,100985.97
2023-09-02T07:33:36.478Z,100987.27
2023-09-02T07:36:14.210Z,100990.98
2023-09-02T07:38:42.780Z,100989.77
2023-09-02T07:41:11.457Z,100988.80
2023-09-02T07:43:39.878Z,100986.52
2023-09-02T07:46:11.971Z,100986.49
2023-09-02T07:48:40.400Z,100989.09
2023-09-02T07:51:08.853Z,100989.19
2023-09-02T07:53:37.256Z,100990.21
2023-09-02T07:56:05.638Z,100990.98
2023-09-02T07:58:34.019Z,100987.68
2023-09-02T08:01:03.774Z,100989.77
2023-09-02T08:03:32.379Z,100990.98
2023-09-02T08:06:10.009Z,100988.92
2023-09-02T08:08:39.652Z,100991.23
2023-09-02T08:11:08.472Z,100992.59
2023-09-02T08:13:36.850Z,100991.98
2023-09-02T08:16:06.665Z,100989.78
2023-09-02T08:18:35.661Z,100992.23
2023-09-02T08:21:13.254Z,100990.41
2023-09-02T08:23:41.622Z,100985.68
2023-09-02T08:26:17.232Z,100982.80
2023-09-02T08:28:46.214Z,100987.27
2023-09-02T08:31:20.933Z,100984.06
2023-09-02T08:33:50.141Z,100988.67
2023-09-02T08:36:19.014Z,100986.70
2023-09-02T08:38:48.181Z,100986.07
2023-09-02T08:41:32.317Z,100983.98
2023-09-02T08:44:03.364Z,100985.73
2023-09-02T08:46:41.501Z,100980.95
2023-09-02T08:49:10.391Z,100982.69
2023-09-02T08:51:39.973Z,100981.91
2023-09-02T08:54:09.956Z,100979.13
2023-09-02T08:56:42.770Z,100980.10
2023-09-02T08:59:11.591Z,100973.95
2023-09-02T09:01:45.409Z,100973.25
2023-09-02T09:04:18.903Z,100977.55
2023-09-02T09:06:47.444Z,100977.20
2023-09-02T09:09:19.223Z,100977.29
2023-09-02T09:11:48.412Z,100976.05
2023-09-02T09:14:26.040Z,100975.24
2023-09-02T09:16:57.178Z,100980.77
2023-09-02T09:19:27.699Z,100980.45
2023-09-02T09:21:56.470Z,100977.20
2023-09-02T09:24:24.922Z,100975.92
2023-09-02T09:26:53.383Z,100968.37
2023-09-02T09:29:24.546Z,100968.70
2023-09-02T09:32:10.801Z,100966.27
2023-09-02T09:34:42.378Z,100968.24
2023-09-02T09:37:11.649Z,100963.54
2023-09-02T09:39:43.014Z,100961.65
2023-09-02T09:42:16.892Z,100957.77
2023-09-02T09:44:57.385Z,100950.83
2023-09-02T09:47:27.661Z,100947.90
2023-09-02T09:50:15.686Z,100945.86
2023-09-02T09:53:06.856Z,100946.27
2023-09-02T09:55:36.082Z,100945.02
2023-09-02T09:58:06.433Z,100934.29
2023-09-02T10:00:34.952Z,100936.73
2023-09-02T10:03:04.377Z,100934.53
2023-09-02T10:05:35.251Z,100938.98
2023-09-02T10:08:07.314Z,100937.30
2023-09-02T10:10:39.056Z,100932.13
2023-09-02T10:13:07.670Z,100926.85
2023-09-02T10:15:36.315Z,100931.09
2023-09-02T10:18:05.751Z,100930.77
2023-09-02T10:20:36.796Z,100925.20
2023-09-02T10:23:10.860Z,100924.68
2023-09-02T10:26:09.645Z,100923.55
2023-09-02T10:28:40.214Z,100923.07
2023-09-02T10:31:20.284Z,100922.66
2023-09-02T10:34:20.025Z,100927.48
2023-09-02T10:36:59.120Z,100925.30
2023-09-02T10:39:39.700Z,100927.94
2023-09-02T10:42:09.628Z,100930.54
2023-09-02T10:44:38.821Z,100933.85
2023-09-02T10:47:07.583Z,100932.05
2023-09-02T10:49:37.202Z,100925.36
2023-09-02T10:52:06.545Z,100922.29
2023-09-02T10:55:06.779Z,100926.09
2023-09-02T10:57:54.258Z,100922.17
2023-09-02T11:00:26.861Z,100919.23
2023-09-02T11:03:00.674Z,100912.12
2023-09-02T11:05:29.999Z,100907.70
2023-09-02T11:07:58.487Z,100908.77
2023-09-02T11:10:57.137Z,100904.86
2023-09-02T11:13:25.585Z,100896.16
2023-09-02T11:16:16.862Z,100892.45
2023-09-02T11:18:45.467Z,100887.48
2023-09-02T11:21:45.161Z,100886.68
2023-09-02T11:24:19.452Z,100886.61
2023-09-02T11:26:59.955Z,100882.71
2023-09-02T11:29:31.173Z,100886.39
2023-09-02T11:32:05.542Z,100882.02
2023-09-02T11:34:34.886Z,100881.22
2023-09-02T11:37:04.926Z,100879.98
2023-09-02T11:39:33.559Z,100881.41
2023-09-02T11:42:09.978Z,100879.96
2023-09-02T11:44:39.594Z,100879.94
2023-09-02T11:47:09.105Z,100876.61
2023-09-02T11:49:37.857Z,100875.36
2023-09-02T11:52:06.672Z,100872.80
2023-09-02T11:54:38.510Z,100872.12
2023-09-02T11:57:06.950Z,100870.96
2023-09-02T11:59:35.382Z,100864.81
2023-09-02T12:02:16.849Z,100861.70
2023-09-02T12:04:49.504Z,100863.79
2023-09-02T12:07:19.191Z,100870.13
2023-09-02T12:09:47.878Z,100870.36
2023-09-02T12:12:16.775Z,100866.84
2023-09-02T12:14:46.184Z,100856.23
2023-09-02T12:17:15.315Z,100857.31
2023-09-02T12:19:43.760Z,100857.54
2023-09-02T12:22:12.298Z,100860.20
2023-09-02T12:24:40.717Z,100858.83
2023-09-02T12:27:10.755Z,100855.76
2023-09-02T12:29:39.386Z,100852.96
2023-09-02T12:32:07.783Z,100849.77
2023-09-02T12:34:40.282Z,100850.87
2023-09-02T12:37:15.457Z,100850.43
2023-09-02T12:39:44.013Z,100849.02
2023-09-02T12:42:20.476Z,100852.62
2023-09-02T12:45:03.152Z,100851.66
2023-09-02T12:47:32.274Z,100849.02
2023-09-02T12:50:05.968Z,100848.75
2023-09-02T12:52:35.860Z,100849.35
2023-09-02T12:55:07.000Z,100844.18
2023-09-02T12:57:36.921Z,100845.38
2023-09-02T13:00:07.056Z,100842.58
2023-09-02T13:02:36.083Z,100843.05
2023-09-02T13:05:05.706Z,100841.49
2023-09-02T13:07:34.720Z,100847.77
2023-09-02T13:10:03.922Z,100847.17
2023-09-02T13:12:33.669Z,100846.59
2023-09-02T13:15:02.116Z,100848.39
2023-09-02T13:17:30.616Z,100844.17
2023-09-02T13:19:59.180Z,100843.61
2023-09-02T13:22:27.586Z,100846.59
2023-09-02T13:24:56.036Z,100842.23
2023-09-02T13:27:27.615Z,100842.67
2023-09-02T13:29:56.278Z,100844.92
2023-09-02T13:32:27.432Z,100839.73
2023-09-02T13:35:09.655Z,100836.83
2023-09-02T13:37:38.099Z,100834.13
2023-09-02T13:40:17.452Z,100832.30
2023-09-02T13:42:48.516Z,100830.48
2023-09-02T13:45:30.199Z,100832.48
2023-09-02T13:48:00.869Z,100834.19
2023-09-02T13:50:29.484Z,100827.40
2023-09-02T13:52:59.602Z,100825.70
2023-09-02T13:55:43.667Z,100824.40
2023-09-02T13:58:18.452Z,100817.76
2023-09-02T14:00:47.960Z,100822.40
2023-09-02T14:03:28.420Z,100821.18
2023-09-02T14:05:59.623Z,100821.54
2023-09-02T14:08:45.746Z,100819.75
2023-09-02T14:11:15.084Z,100815.16
2023-09-02T14:13:43.528Z,100811.96
2023-09-02T14:16:12.016Z,100811.50
2023-09-02T14:18:40.452Z,100810.40
2023-09-02T14:21:09.568Z,100810.77
2023-09-02T14:23:37.970Z,100808.10
2023-09-02T14:26:06.414Z,100806.63
2023-09-02T14:28:36.678Z,100809.46
2023-09-02T14:31:05.434Z,100806.98
2023-09-02T14:33:33.966Z,100803.02
2023-09-02T14:36:03.860Z,100794.64
2023-09-02T14:38:32.316Z,100796.65
2023-09-02T14:41:00.731Z,100792.33
2023-09-02T14:43:29.709Z,100794.09
2023-09-02T14:45:58.254Z,100793.42
2023-09-02T14:48:26.869Z,100797.39
2023-09-02T14:50:57.006Z,100795.83
2023-09-02T14:53:25.445Z,100800.58
2023-09-02T14:55:53.987Z,100799.47
2023-09-02T14:58:22.441Z,100798.00
2023-09-02T15:00:55.631Z,100797.74
2023-09-02T15:03:33.959Z,100796.62
2023-09-02T15:06:02.598Z,100798.89
2023-09-02T15:08:34.244Z,100800.64
2023-09-02T15:11:03.145Z,100802.94
2023-09-02T15:13:32.440Z,100805.11
2023-09-02T15:16:01.538Z,100808.41
2023-09-02T15:18:32.324Z,100809.14
2023-09-02T15:21:03.499Z,100808.79
2023-09-02T15:23:33.593Z,100814.98
2023-09-02T15:26:02.658Z,100814.08
2023-09-02T15:28:31.226Z,100811.98
2023-09-02T15:31:04.693Z,100811.11
2023-09-02T15:33:33.150Z,100813.77
2023-09-02T15:36:03.980Z,100813.81
2023-09-02T15:38:32.385Z,100815.48
2023-09-02T15:41:05.002Z,100813.10
2023-09-02T15:43:39.617Z,100812.35
2023-09-02T15:46:08.820Z,100811.15
2023-09-02T15:48:37.306Z,100811.14
2023-09-02T15:51:08.008Z,100811.91
2023-09-02T15:53:36.401Z,100817.80
2023-09-02T15:56:04.961Z,100817.83
2023-09-02T15:58:33.602Z,100819.79
2023-09-02T16:01:02.073Z,100821.73
2023-09-02T16:03:30.597Z,100820.98
2023-09-02T16:06:00.374Z,100823.52
2023-09-02T16:08:28.784Z,100823.03
2023-09-02T16:10:57.511Z,100826.97
2023-09-02T16:13:25.936Z,100823.52
2023-09-02T16:15:54.405Z,100824.15
2023-09-02T16:18:22.853Z,100829.80
2023-09-02T16:20:53.958Z,100826.05
2023-09-02T16:23:22.777Z,100828.99
2023-09-02T16:25:51.346Z,100835.48
2023-09-02T16:28:19.742Z,100835.12
2023-09-02T16:30:48.229Z,100833.59
2023-09-02T16:33:17.068Z,100834.13
2023-09-02T16:35:45.671Z,100834.98
2023-09-02T16:38:14.762Z,100837.24
2023-09-02T16:40:43.243Z,100839.78
2023-09-02T16:43:16.547Z,100840.78
2023-09-02T16:45:49.087Z,100839.90
2023-09-02T16:48:21.962Z,100845.33
2023-09-02T16:50:51.078Z,100847.52
2023-09-02T16:53:20.069Z,100843.14
2023-09-02T16:56:04.083Z,100848.18
2023-09-02T16:58:36.946Z,100850.04
2023-09-02T17:01:08.908Z,100854.46
2023-09-02T17:03:37.723Z,100852.76
2023-09-02T17:06:08.548Z,100851.30
2023-09-02T17:08:38.046Z,100851.88
2023-09-02T17:11:06.438Z,100853.91
2023-09-02T17:13:36.170Z,100852.48
2023-09-02T17:16:10.466Z,100854.18
2023-09-02T17:18:39.427Z,100857.52
2023-09-02T17:21:13.450Z,100856.34
2023-09-02T17:23:41.794Z,100862.63
